sensor_id;sensor_type;location;lat;lon;timestamp;P1;durP1;ratioP1;P2;durP2;ratioP2
19026;SDS011;9646;52.034;5.554;2022-08-14T00:02:02;5.78;;;3.50;;
19026;SDS011;9646;52.034;5.554;2022-08-14T00:04:30;4.38;;;3.63;;
19026;SDS011;9646;52.034;5.554;2022-08-14T00:06:57;4.15;;;3.80;;
19026;SDS011;9646;52.034;5.554;2022-08-14T00:09:24;5.72;;;3.80;;
19026;SDS011;9646;52.034;5.554;2022-08-14T00:11:51;5.05;;;3.55;;
19026;SDS011;9646;52.034;5.554;2022-08-14T00:14:21;3.90;;;3.60;;
19026;SDS011;9646;52.034;5.554;2022-08-14T00:16:48;4.20;;;3.80;;
19026;SDS011;9646;52.034;5.554;2022-08-14T00:19:16;3.83;;;3.42;;
19026;SDS011;9646;52.034;5.554;2022-08-14T00:21:43;4.30;;;3.90;;
19026;SDS011;9646;52.034;5.554;2022-08-14T00:24:10;3.97;;;3.67;;
19026;SDS011;9646;52.034;5.554;2022-08-14T00:26:37;4.72;;;4.20;;
19026;SDS011;9646;52.034;5.554;2022-08-14T00:29:04;5.00;;;3.97;;
19026;SDS011;9646;52.034;5.554;2022-08-14T00:31:33;4.55;;;4.15;;
19026;SDS011;9646;52.034;5.554;2022-08-14T00:34:00;4.20;;;3.90;;
19026;SDS011;9646;52.034;5.554;2022-08-14T00:36:27;4.72;;;4.10;;
19026;SDS011;9646;52.034;5.554;2022-08-14T00:38:54;5.15;;;4.30;;
19026;SDS011;9646;52.034;5.554;2022-08-14T00:41:21;4.22;;;3.83;;
19026;SDS011;9646;52.034;5.554;2022-08-14T00:43:48;4.85;;;4.20;;
19026;SDS011;9646;52.034;5.554;2022-08-14T00:46:15;6.32;;;4.10;;
19026;SDS011;9646;52.034;5.554;2022-08-14T00:48:44;5.75;;;4.47;;
19026;SDS011;9646;52.034;5.554;2022-08-14T00:51:12;5.32;;;4.60;;
19026;SDS011;9646;52.034;5.554;2022-08-14T00:53:39;4.47;;;4.00;;
19026;SDS011;9646;52.034;5.554;2022-08-14T00:56:07;4.43;;;4.03;;
19026;SDS011;9646;52.034;5.554;2022-08-14T00:58:34;4.53;;;4.13;;
19026;SDS011;9646;52.034;5.554;2022-08-14T01:01:03;5.60;;;4.10;;
19026;SDS011;9646;52.034;5.554;2022-08-14T01:03:32;4.30;;;3.90;;
19026;SDS011;9646;52.034;5.554;2022-08-14T01:06:05;5.47;;;4.13;;
19026;SDS011;9646;52.034;5.554;2022-08-14T01:08:33;5.00;;;4.10;;
19026;SDS011;9646;52.034;5.554;2022-08-14T01:11:00;7.20;;;4.88;;
19026;SDS011;9646;52.034;5.554;2022-08-14T01:13:29;5.65;;;4.68;;
19026;SDS011;9646;52.034;5.554;2022-08-14T01:15:58;5.97;;;4.85;;
19026;SDS011;9646;52.034;5.554;2022-08-14T01:18:26;6.20;;;4.53;;
19026;SDS011;9646;52.034;5.554;2022-08-14T01:21:13;5.28;;;4.78;;
19026;SDS011;9646;52.034;5.554;2022-08-14T01:23:43;4.95;;;4.22;;
19026;SDS011;9646;52.034;5.554;2022-08-14T01:26:10;6.40;;;5.13;;
19026;SDS011;9646;52.034;5.554;2022-08-14T01:28:37;4.85;;;4.45;;
19026;SDS011;9646;52.034;5.554;2022-08-14T01:31:06;5.47;;;4.70;;
19026;SDS011;9646;52.034;5.554;2022-08-14T01:33:34;4.95;;;4.50;;
19026;SDS011;9646;52.034;5.554;2022-08-14T01:36:05;5.82;;;5.22;;
19026;SDS011;9646;52.034;5.554;2022-08-14T01:38:32;4.75;;;4.35;;
19026;SDS011;9646;52.034;5.554;2022-08-14T01:41:01;5.65;;;4.78;;
19026;SDS011;9646;52.034;5.554;2022-08-14T01:43:29;5.57;;;4.40;;
19026;SDS011;9646;52.034;5.554;2022-08-14T01:45:57;5.00;;;4.55;;
19026;SDS011;9646;52.034;5.554;2022-08-14T01:48:25;5.47;;;4.55;;
19026;SDS011;9646;52.034;5.554;2022-08-14T01:50:54;5.03;;;4.53;;
19026;SDS011;9646;52.034;5.554;2022-08-14T01:53:25;5.15;;;4.63;;
19026;SDS011;9646;52.034;5.554;2022-08-14T01:55:53;5.30;;;4.78;;
19026;SDS011;9646;52.034;5.554;2022-08-14T01:58:24;5.80;;;4.78;;
19026;SDS011;9646;52.034;5.554;2022-08-14T02:00:53;4.97;;;4.57;;
19026;SDS011;9646;52.034;5.554;2022-08-14T02:03:20;5.47;;;4.90;;
19026;SDS011;9646;52.034;5.554;2022-08-14T02:05:48;5.32;;;4.57;;
19026;SDS011;9646;52.034;5.554;2022-08-14T02:08:15;6.65;;;4.63;;
19026;SDS011;9646;52.034;5.554;2022-08-14T02:10:42;5.28;;;4.85;;
19026;SDS011;9646;52.034;5.554;2022-08-14T02:13:31;4.85;;;4.35;;
19026;SDS011;9646;52.034;5.554;2022-08-14T02:15:58;5.10;;;4.60;;
19026;SDS011;9646;52.034;5.554;2022-08-14T02:18:25;6.10;;;5.00;;
19026;SDS011;9646;52.034;5.554;2022-08-14T02:20:54;5.50;;;4.50;;
19026;SDS011;9646;52.034;5.554;2022-08-14T02:23:22;5.30;;;4.80;;
19026;SDS011;9646;52.034;5.554;2022-08-14T02:25:49;5.20;;;4.70;;
19026;SDS011;9646;52.034;5.554;2022-08-14T02:28:16;7.60;;;5.25;;
19026;SDS011;9646;52.034;5.554;2022-08-14T02:30:45;5.60;;;4.88;;
19026;SDS011;9646;52.034;5.554;2022-08-14T02:33:12;5.78;;;5.20;;
19026;SDS011;9646;52.034;5.554;2022-08-14T02:35:39;6.90;;;5.30;;
19026;SDS011;9646;52.034;5.554;2022-08-14T02:38:07;6.47;;;5.88;;
19026;SDS011;9646;52.034;5.554;2022-08-14T02:40:34;5.55;;;5.05;;
19026;SDS011;9646;52.034;5.554;2022-08-14T02:43:02;6.15;;;5.10;;
19026;SDS011;9646;52.034;5.554;2022-08-14T02:45:30;7.50;;;4.97;;
19026;SDS011;9646;52.034;5.554;2022-08-14T02:47:59;5.80;;;4.60;;
19026;SDS011;9646;52.034;5.554;2022-08-14T02:50:27;5.72;;;5.07;;
19026;SDS011;9646;52.034;5.554;2022-08-14T02:52:54;5.45;;;4.95;;
19026;SDS011;9646;52.034;5.554;2022-08-14T02:55:21;6.35;;;4.32;;
19026;SDS011;9646;52.034;5.554;2022-08-14T02:57:49;4.97;;;4.47;;
19026;SDS011;9646;52.034;5.554;2022-08-14T03:00:19;5.65;;;5.10;;
19026;SDS011;9646;52.034;5.554;2022-08-14T03:02:47;5.78;;;5.28;;
19026;SDS011;9646;52.034;5.554;2022-08-14T03:05:16;6.03;;;4.70;;
19026;SDS011;9646;52.034;5.554;2022-08-14T03:07:44;5.70;;;4.47;;
19026;SDS011;9646;52.034;5.554;2022-08-14T03:10:11;5.78;;;5.18;;
19026;SDS011;9646;52.034;5.554;2022-08-14T03:12:38;5.55;;;5.05;;
19026;SDS011;9646;52.034;5.554;2022-08-14T03:15:06;6.00;;;5.40;;
19026;SDS011;9646;52.034;5.554;2022-08-14T03:17:37;5.80;;;5.30;;
19026;SDS011;9646;52.034;5.554;2022-08-14T03:20:04;7.95;;;5.22;;
19026;SDS011;9646;52.034;5.554;2022-08-14T03:22:33;8.25;;;4.78;;
19026;SDS011;9646;52.034;5.554;2022-08-14T03:25:01;5.82;;;5.32;;
19026;SDS011;9646;52.034;5.554;2022-08-14T03:27:29;6.38;;;5.28;;
19026;SDS011;9646;52.034;5.554;2022-08-14T03:29:56;6.07;;;5.45;;
19026;SDS011;9646;52.034;5.554;2022-08-14T03:32:23;6.25;;;5.65;;
19026;SDS011;9646;52.034;5.554;2022-08-14T03:34:50;6.20;;;5.22;;
19026;SDS011;9646;52.034;5.554;2022-08-14T03:37:17;6.50;;;5.90;;
19026;SDS011;9646;52.034;5.554;2022-08-14T03:39:45;5.72;;;5.22;;
19026;SDS011;9646;52.034;5.554;2022-08-14T03:42:13;6.15;;;5.55;;
19026;SDS011;9646;52.034;5.554;2022-08-14T03:44:40;6.00;;;5.40;;
19026;SDS011;9646;52.034;5.554;2022-08-14T03:47:08;7.03;;;6.10;;
19026;SDS011;9646;52.034;5.554;2022-08-14T03:49:36;6.30;;;5.70;;
19026;SDS011;9646;52.034;5.554;2022-08-14T03:52:04;6.85;;;6.15;;
19026;SDS011;9646;52.034;5.554;2022-08-14T03:54:31;5.78;;;5.28;;
19026;SDS011;9646;52.034;5.554;2022-08-14T03:57:01;7.50;;;5.80;;
19026;SDS011;9646;52.034;5.554;2022-08-14T03:59:28;6.60;;;6.10;;
19026;SDS011;9646;52.034;5.554;2022-08-14T04:01:55;6.47;;;5.90;;
19026;SDS011;9646;52.034;5.554;2022-08-14T04:04:22;7.93;;;6.18;;
19026;SDS011;9646;52.034;5.554;2022-08-14T04:06:49;6.07;;;5.47;;
19026;SDS011;9646;52.034;5.554;2022-08-14T04:09:16;8.10;;;6.13;;
19026;SDS011;9646;52.034;5.554;2022-08-14T04:11:43;6.38;;;5.82;;
19026;SDS011;9646;52.034;5.554;2022-08-14T04:14:11;6.93;;;6.22;;
19026;SDS011;9646;52.034;5.554;2022-08-14T04:16:39;6.63;;;5.85;;
19026;SDS011;9646;52.034;5.554;2022-08-14T04:19:11;6.78;;;6.18;;
19026;SDS011;9646;52.034;5.554;2022-08-14T04:21:43;8.48;;;6.15;;
19026;SDS011;9646;52.034;5.554;2022-08-14T04:24:10;7.13;;;6.43;;
19026;SDS011;9646;52.034;5.554;2022-08-14T04:26:38;6.70;;;6.10;;
19026;SDS011;9646;52.034;5.554;2022-08-14T04:29:08;8.32;;;6.22;;
19026;SDS011;9646;52.034;5.554;2022-08-14T04:31:37;6.30;;;5.70;;
19026;SDS011;9646;52.034;5.554;2022-08-14T04:34:04;6.63;;;5.72;;
19026;SDS011;9646;52.034;5.554;2022-08-14T04:36:31;7.18;;;6.32;;
19026;SDS011;9646;52.034;5.554;2022-08-14T04:39:18;6.50;;;5.90;;
19026;SDS011;9646;52.034;5.554;2022-08-14T04:42:11;7.88;;;6.15;;
19026;SDS011;9646;52.034;5.554;2022-08-14T04:44:56;6.68;;;6.07;;
19026;SDS011;9646;52.034;5.554;2022-08-14T04:47:25;6.82;;;6.10;;
19026;SDS011;9646;52.034;5.554;2022-08-14T04:50:09;7.60;;;6.75;;
19026;SDS011;9646;52.034;5.554;2022-08-14T04:52:37;7.30;;;6.60;;
19026;SDS011;9646;52.034;5.554;2022-08-14T04:55:04;6.88;;;6.18;;
19026;SDS011;9646;52.034;5.554;2022-08-14T04:57:32;7.30;;;6.60;;
19026;SDS011;9646;52.034;5.554;2022-08-14T04:59:59;6.95;;;6.32;;
19026;SDS011;9646;52.034;5.554;2022-08-14T05:02:28;7.47;;;6.45;;
19026;SDS011;9646;52.034;5.554;2022-08-14T05:04:55;7.07;;;6.38;;
19026;SDS011;9646;52.034;5.554;2022-08-14T05:07:22;6.63;;;6.07;;
19026;SDS011;9646;52.034;5.554;2022-08-14T05:09:49;7.93;;;6.35;;
19026;SDS011;9646;52.034;5.554;2022-08-14T05:12:16;7.25;;;6.55;;
19026;SDS011;9646;52.034;5.554;2022-08-14T05:14:43;6.43;;;5.82;;
19026;SDS011;9646;52.034;5.554;2022-08-14T05:17:11;8.43;;;6.78;;
19026;SDS011;9646;52.034;5.554;2022-08-14T05:19:39;7.13;;;6.35;;
19026;SDS011;9646;52.034;5.554;2022-08-14T05:22:06;9.48;;;6.25;;
19026;SDS011;9646;52.034;5.554;2022-08-14T05:24:33;8.63;;;7.30;;
19026;SDS011;9646;52.034;5.554;2022-08-14T05:27:01;7.70;;;6.90;;
19026;SDS011;9646;52.034;5.554;2022-08-14T05:29:28;7.88;;;6.97;;
19026;SDS011;9646;52.034;5.554;2022-08-14T05:31:55;10.20;;;7.03;;
19026;SDS011;9646;52.034;5.554;2022-08-14T05:34:25;7.47;;;6.78;;
19026;SDS011;9646;52.034;5.554;2022-08-14T05:36:55;8.45;;;7.65;;
19026;SDS011;9646;52.034;5.554;2022-08-14T05:39:22;10.95;;;7.70;;
19026;SDS011;9646;52.034;5.554;2022-08-14T05:41:49;7.28;;;6.60;;
19026;SDS011;9646;52.034;5.554;2022-08-14T05:44:16;7.95;;;7.25;;
19026;SDS011;9646;52.034;5.554;2022-08-14T05:46:44;7.38;;;6.68;;
19026;SDS011;9646;52.034;5.554;2022-08-14T05:49:11;6.65;;;6.05;;
19026;SDS011;9646;52.034;5.554;2022-08-14T05:51:38;7.72;;;6.93;;
19026;SDS011;9646;52.034;5.554;2022-08-14T05:54:07;7.63;;;6.82;;
19026;SDS011;9646;52.034;5.554;2022-08-14T05:56:34;9.15;;;6.78;;
19026;SDS011;9646;52.034;5.554;2022-08-14T05:59:01;8.45;;;6.65;;
19026;SDS011;9646;52.034;5.554;2022-08-14T06:01:29;7.10;;;6.40;;
19026;SDS011;9646;52.034;5.554;2022-08-14T06:03:56;7.28;;;6.53;;
19026;SDS011;9646;52.034;5.554;2022-08-14T06:06:41;7.10;;;6.40;;
19026;SDS011;9646;52.034;5.554;2022-08-14T06:09:09;6.85;;;6.20;;
19026;SDS011;9646;52.034;5.554;2022-08-14T06:11:36;6.63;;;5.88;;
19026;SDS011;9646;52.034;5.554;2022-08-14T06:14:03;6.90;;;5.85;;
19026;SDS011;9646;52.034;5.554;2022-08-14T06:16:30;7.15;;;5.78;;
19026;SDS011;9646;52.034;5.554;2022-08-14T06:18:57;5.90;;;5.38;;
19026;SDS011;9646;52.034;5.554;2022-08-14T06:21:25;5.57;;;5.07;;
19026;SDS011;9646;52.034;5.554;2022-08-14T06:23:52;5.95;;;5.43;;
19026;SDS011;9646;52.034;5.554;2022-08-14T06:26:20;5.82;;;5.28;;
19026;SDS011;9646;52.034;5.554;2022-08-14T06:28:47;6.60;;;6.00;;
19026;SDS011;9646;52.034;5.554;2022-08-14T06:31:14;5.60;;;5.10;;
19026;SDS011;9646;52.034;5.554;2022-08-14T06:33:42;6.15;;;5.57;;
19026;SDS011;9646;52.034;5.554;2022-08-14T06:36:09;5.90;;;4.60;;
19026;SDS011;9646;52.034;5.554;2022-08-14T06:38:36;6.63;;;5.53;;
19026;SDS011;9646;52.034;5.554;2022-08-14T06:41:03;6.32;;;5.72;;
19026;SDS011;9646;52.034;5.554;2022-08-14T06:43:32;5.03;;;4.63;;
19026;SDS011;9646;52.034;5.554;2022-08-14T06:45:59;4.70;;;4.30;;
19026;SDS011;9646;52.034;5.554;2022-08-14T06:48:26;5.70;;;5.18;;
19026;SDS011;9646;52.034;5.554;2022-08-14T06:50:53;5.65;;;5.15;;
19026;SDS011;9646;52.034;5.554;2022-08-14T06:53:21;7.32;;;5.32;;
19026;SDS011;9646;52.034;5.554;2022-08-14T06:55:48;5.45;;;4.95;;
19026;SDS011;9646;52.034;5.554;2022-08-14T06:58:16;7.43;;;6.45;;
19026;SDS011;9646;52.034;5.554;2022-08-14T07:00:45;6.30;;;5.70;;
19026;SDS011;9646;52.034;5.554;2022-08-14T07:03:26;8.63;;;6.57;;
19026;SDS011;9646;52.034;5.554;2022-08-14T07:06:11;6.35;;;5.80;;
19026;SDS011;9646;52.034;5.554;2022-08-14T07:08:38;6.90;;;6.20;;
19026;SDS011;9646;52.034;5.554;2022-08-14T07:11:06;7.00;;;6.25;;
19026;SDS011;9646;52.034;5.554;2022-08-14T07:13:33;7.47;;;6.63;;
19026;SDS011;9646;52.034;5.554;2022-08-14T07:16:02;8.60;;;6.60;;
19026;SDS011;9646;52.034;5.554;2022-08-14T07:18:30;5.50;;;5.00;;
19026;SDS011;9646;52.034;5.554;2022-08-14T07:20:58;5.05;;;4.53;;
19026;SDS011;9646;52.034;5.554;2022-08-14T07:23:25;5.30;;;4.90;;
19026;SDS011;9646;52.034;5.554;2022-08-14T07:25:53;4.72;;;4.15;;
19026;SDS011;9646;52.034;5.554;2022-08-14T07:28:21;5.50;;;5.00;;
19026;SDS011;9646;52.034;5.554;2022-08-14T07:30:49;5.47;;;4.85;;
19026;SDS011;9646;52.034;5.554;2022-08-14T07:33:18;6.13;;;5.53;;
19026;SDS011;9646;52.034;5.554;2022-08-14T07:35:45;5.55;;;5.05;;
19026;SDS011;9646;52.034;5.554;2022-08-14T07:38:16;8.43;;;4.88;;
19026;SDS011;9646;52.034;5.554;2022-08-14T07:40:44;4.95;;;4.45;;
19026;SDS011;9646;52.034;5.554;2022-08-14T07:43:11;6.68;;;5.95;;
19026;SDS011;9646;52.034;5.554;2022-08-14T07:45:38;5.80;;;4.90;;
19026;SDS011;9646;52.034;5.554;2022-08-14T07:48:05;8.10;;;6.15;;
19026;SDS011;9646;52.034;5.554;2022-08-14T07:50:34;5.72;;;5.22;;
19026;SDS011;9646;52.034;5.554;2022-08-14T07:53:01;6.88;;;6.18;;
19026;SDS011;9646;52.034;5.554;2022-08-14T07:55:31;5.43;;;4.90;;
19026;SDS011;9646;52.034;5.554;2022-08-14T07:57:58;5.28;;;4.78;;
19026;SDS011;9646;52.034;5.554;2022-08-14T08:00:25;4.70;;;4.25;;
19026;SDS011;9646;52.034;5.554;2022-08-14T08:02:53;5.28;;;4.78;;
19026;SDS011;9646;52.034;5.554;2022-08-14T08:05:22;5.63;;;5.00;;
19026;SDS011;9646;52.034;5.554;2022-08-14T08:07:51;4.70;;;4.30;;
19026;SDS011;9646;52.034;5.554;2022-08-14T08:10:20;6.38;;;5.78;;
19026;SDS011;9646;52.034;5.554;2022-08-14T08:13:05;8.07;;;5.90;;
19026;SDS011;9646;52.034;5.554;2022-08-14T08:15:33;5.95;;;5.45;;
19026;SDS011;9646;52.034;5.554;2022-08-14T08:18:02;8.25;;;6.40;;
19026;SDS011;9646;52.034;5.554;2022-08-14T08:20:30;5.25;;;4.75;;
19026;SDS011;9646;52.034;5.554;2022-08-14T08:22:58;4.95;;;4.50;;
19026;SDS011;9646;52.034;5.554;2022-08-14T08:25:27;4.68;;;4.28;;
19026;SDS011;9646;52.034;5.554;2022-08-14T08:27:55;6.07;;;5.50;;
19026;SDS011;9646;52.034;5.554;2022-08-14T08:30:23;7.10;;;6.32;;
19026;SDS011;9646;52.034;5.554;2022-08-14T08:32:50;7.18;;;5.45;;
19026;SDS011;9646;52.034;5.554;2022-08-14T08:35:18;5.45;;;4.95;;
19026;SDS011;9646;52.034;5.554;2022-08-14T08:37:46;5.00;;;4.50;;
19026;SDS011;9646;52.034;5.554;2022-08-14T08:40:21;7.28;;;5.68;;
19026;SDS011;9646;52.034;5.554;2022-08-14T08:42:49;5.57;;;5.00;;
19026;SDS011;9646;52.034;5.554;2022-08-14T08:45:16;5.00;;;4.50;;
19026;SDS011;9646;52.034;5.554;2022-08-14T08:47:43;5.40;;;4.90;;
19026;SDS011;9646;52.034;5.554;2022-08-14T08:50:14;6.05;;;5.43;;
19026;SDS011;9646;52.034;5.554;2022-08-14T08:52:50;6.32;;;5.70;;
19026;SDS011;9646;52.034;5.554;2022-08-14T08:55:26;7.53;;;5.97;;
19026;SDS011;9646;52.034;5.554;2022-08-14T08:57:53;7.15;;;6.45;;
19026;SDS011;9646;52.034;5.554;2022-08-14T09:00:21;7.28;;;5.78;;
19026;SDS011;9646;52.034;5.554;2022-08-14T09:02:52;6.68;;;5.72;;
19026;SDS011;9646;52.034;5.554;2022-08-14T09:05:21;6.13;;;5.53;;
19026;SDS011;9646;52.034;5.554;2022-08-14T09:07:49;4.82;;;4.43;;
19026;SDS011;9646;52.034;5.554;2022-08-14T09:10:16;5.25;;;4.75;;
19026;SDS011;9646;52.034;5.554;2022-08-14T09:12:44;7.07;;;6.13;;
19026;SDS011;9646;52.034;5.554;2022-08-14T09:15:12;6.28;;;5.78;;
19026;SDS011;9646;52.034;5.554;2022-08-14T09:17:41;6.45;;;5.82;;
19026;SDS011;9646;52.034;5.554;2022-08-14T09:20:09;6.00;;;5.47;;
19026;SDS011;9646;52.034;5.554;2022-08-14T09:22:36;8.52;;;6.47;;
19026;SDS011;9646;52.034;5.554;2022-08-14T09:25:04;6.95;;;6.28;;
19026;SDS011;9646;52.034;5.554;2022-08-14T09:27:32;8.02;;;6.43;;
19026;SDS011;9646;52.034;5.554;2022-08-14T09:30:00;9.15;;;6.07;;
19026;SDS011;9646;52.034;5.554;2022-08-14T09:32:28;6.60;;;5.82;;
19026;SDS011;9646;52.034;5.554;2022-08-14T09:35:02;8.25;;;6.03;;
19026;SDS011;9646;52.034;5.554;2022-08-14T09:37:39;7.25;;;5.80;;
19026;SDS011;9646;52.034;5.554;2022-08-14T09:40:13;7.18;;;6.47;;
19026;SDS011;9646;52.034;5.554;2022-08-14T09:42:47;7.28;;;6.45;;
19026;SDS011;9646;52.034;5.554;2022-08-14T09:45:17;8.32;;;6.43;;
19026;SDS011;9646;52.034;5.554;2022-08-14T09:47:46;5.43;;;4.93;;
19026;SDS011;9646;52.034;5.554;2022-08-14T09:50:21;7.13;;;6.47;;
19026;SDS011;9646;52.034;5.554;2022-08-14T09:52:49;6.50;;;5.88;;
19026;SDS011;9646;52.034;5.554;2022-08-14T09:55:16;9.43;;;6.47;;
19026;SDS011;9646;52.034;5.554;2022-08-14T09:57:43;7.10;;;6.40;;
19026;SDS011;9646;52.034;5.554;2022-08-14T10:00:11;7.32;;;6.35;;
19026;SDS011;9646;52.034;5.554;2022-08-14T10:02:52;8.05;;;6.32;;
19026;SDS011;9646;52.034;5.554;2022-08-14T10:05:26;8.43;;;7.15;;
19026;SDS011;9646;52.034;5.554;2022-08-14T10:07:54;11.30;;;6.20;;
19026;SDS011;9646;52.034;5.554;2022-08-14T10:10:28;6.38;;;5.78;;
19026;SDS011;9646;52.034;5.554;2022-08-14T10:12:55;7.50;;;6.45;;
19026;SDS011;9646;52.034;5.554;2022-08-14T10:15:23;7.88;;;6.07;;
19026;SDS011;9646;52.034;5.554;2022-08-14T10:18:03;5.72;;;5.22;;
19026;SDS011;9646;52.034;5.554;2022-08-14T10:20:33;6.50;;;5.50;;
19026;SDS011;9646;52.034;5.554;2022-08-14T10:23:12;5.78;;;5.03;;
19026;SDS011;9646;52.034;5.554;2022-08-14T10:25:39;6.53;;;5.90;;
19026;SDS011;9646;52.034;5.554;2022-08-14T10:28:08;7.68;;;5.43;;
19026;SDS011;9646;52.034;5.554;2022-08-14T10:30:40;6.78;;;4.45;;
19026;SDS011;9646;52.034;5.554;2022-08-14T10:33:09;6.47;;;5.57;;
19026;SDS011;9646;52.034;5.554;2022-08-14T10:35:40;6.50;;;5.90;;
19026;SDS011;9646;52.034;5.554;2022-08-14T10:38:07;5.63;;;5.07;;
19026;SDS011;9646;52.034;5.554;2022-08-14T10:40:34;7.68;;;5.35;;
19026;SDS011;9646;52.034;5.554;2022-08-14T10:43:02;6.03;;;4.88;;
19026;SDS011;9646;52.034;5.554;2022-08-14T10:45:31;5.32;;;4.82;;
19026;SDS011;9646;52.034;5.554;2022-08-14T10:47:58;6.40;;;5.22;;
19026;SDS011;9646;52.034;5.554;2022-08-14T10:50:31;5.95;;;4.65;;
19026;SDS011;9646;52.034;5.554;2022-08-14T10:52:58;4.63;;;4.18;;
19026;SDS011;9646;52.034;5.554;2022-08-14T10:55:32;5.97;;;4.50;;
19026;SDS011;9646;52.034;5.554;2022-08-14T10:58:03;4.68;;;4.05;;
19026;SDS011;9646;52.034;5.554;2022-08-14T11:00:34;4.40;;;4.00;;
19026;SDS011;9646;52.034;5.554;2022-08-14T11:03:01;5.15;;;4.25;;
19026;SDS011;9646;52.034;5.554;2022-08-14T11:05:41;4.85;;;4.07;;
19026;SDS011;9646;52.034;5.554;2022-08-14T11:08:09;3.97;;;3.67;;
19026;SDS011;9646;52.034;5.554;2022-08-14T11:10:41;5.05;;;4.55;;
19026;SDS011;9646;52.034;5.554;2022-08-14T11:13:09;4.70;;;4.30;;
19026;SDS011;9646;52.034;5.554;2022-08-14T11:15:36;4.80;;;4.10;;
19026;SDS011;9646;52.034;5.554;2022-08-14T11:18:03;4.43;;;4.03;;
19026;SDS011;9646;52.034;5.554;2022-08-14T11:20:31;4.35;;;4.00;;
19026;SDS011;9646;52.034;5.554;2022-08-14T11:23:00;5.35;;;4.55;;
19026;SDS011;9646;52.034;5.554;2022-08-14T11:25:29;4.88;;;4.40;;
19026;SDS011;9646;52.034;5.554;2022-08-14T11:27:58;6.60;;;4.00;;
19026;SDS011;9646;52.034;5.554;2022-08-14T11:30:26;6.60;;;3.97;;
19026;SDS011;9646;52.034;5.554;2022-08-14T11:32:54;5.55;;;4.00;;
19026;SDS011;9646;52.034;5.554;2022-08-14T11:35:22;4.53;;;4.13;;
19026;SDS011;9646;52.034;5.554;2022-08-14T11:37:50;4.65;;;4.25;;
19026;SDS011;9646;52.034;5.554;2022-08-14T11:40:19;4.78;;;4.25;;
19026;SDS011;9646;52.034;5.554;2022-08-14T11:42:47;4.80;;;4.40;;
19026;SDS011;9646;52.034;5.554;2022-08-14T11:45:16;6.45;;;4.45;;
19026;SDS011;9646;52.034;5.554;2022-08-14T11:47:44;4.93;;;4.50;;
19026;SDS011;9646;52.034;5.554;2022-08-14T11:50:11;4.75;;;4.28;;
19026;SDS011;9646;52.034;5.554;2022-08-14T11:52:39;5.25;;;4.75;;
19026;SDS011;9646;52.034;5.554;2022-08-14T11:55:07;5.60;;;3.72;;
19026;SDS011;9646;52.034;5.554;2022-08-14T11:57:38;5.80;;;4.72;;
19026;SDS011;9646;52.034;5.554;2022-08-14T12:00:06;6.40;;;4.22;;
19026;SDS011;9646;52.034;5.554;2022-08-14T12:02:33;5.95;;;4.28;;
19026;SDS011;9646;52.034;5.554;2022-08-14T12:05:01;4.60;;;4.20;;
19026;SDS011;9646;52.034;5.554;2022-08-14T12:07:28;4.63;;;4.22;;
19026;SDS011;9646;52.034;5.554;2022-08-14T12:09:56;4.72;;;3.90;;
19026;SDS011;9646;52.034;5.554;2022-08-14T12:12:25;4.47;;;4.07;;
19026;SDS011;9646;52.034;5.554;2022-08-14T12:14:55;7.97;;;4.53;;
19026;SDS011;9646;52.034;5.554;2022-08-14T12:17:24;5.80;;;4.20;;
19026;SDS011;9646;52.034;5.554;2022-08-14T12:19:52;4.70;;;4.30;;
19026;SDS011;9646;52.034;5.554;2022-08-14T12:24:55;4.72;;;4.18;;
19026;SDS011;9646;52.034;5.554;2022-08-14T12:27:33;6.35;;;4.15;;
19026;SDS011;9646;52.034;5.554;2022-08-14T12:32:41;5.55;;;4.53;;
19026;SDS011;9646;52.034;5.554;2022-08-14T12:35:08;4.97;;;4.45;;
19026;SDS011;9646;52.034;5.554;2022-08-14T12:37:36;4.25;;;3.80;;
19026;SDS011;9646;52.034;5.554;2022-08-14T12:40:10;4.18;;;3.78;;
19026;SDS011;9646;52.034;5.554;2022-08-14T12:42:37;4.90;;;3.55;;
19026;SDS011;9646;52.034;5.554;2022-08-14T12:45:05;6.30;;;4.22;;
19026;SDS011;9646;52.034;5.554;2022-08-14T12:47:35;4.97;;;4.47;;
19026;SDS011;9646;52.034;5.554;2022-08-14T12:50:04;5.45;;;4.95;;
19026;SDS011;9646;52.034;5.554;2022-08-14T12:52:32;7.28;;;6.53;;
19026;SDS011;9646;52.034;5.554;2022-08-14T12:55:00;4.53;;;4.13;;
19026;SDS011;9646;52.034;5.554;2022-08-14T12:57:32;4.40;;;3.95;;
19026;SDS011;9646;52.034;5.554;2022-08-14T13:00:07;4.38;;;3.90;;
19026;SDS011;9646;52.034;5.554;2022-08-14T13:02:37;5.38;;;3.85;;
19026;SDS011;9646;52.034;5.554;2022-08-14T13:05:07;4.78;;;3.65;;
19026;SDS011;9646;52.034;5.554;2022-08-14T13:07:35;6.13;;;4.55;;
19026;SDS011;9646;52.034;5.554;2022-08-14T13:10:04;4.40;;;4.00;;
19026;SDS011;9646;52.034;5.554;2022-08-14T13:12:31;4.38;;;3.97;;
19026;SDS011;9646;52.034;5.554;2022-08-14T13:14:59;4.22;;;3.80;;
19026;SDS011;9646;52.034;5.554;2022-08-14T13:17:26;4.32;;;3.65;;
19026;SDS011;9646;52.034;5.554;2022-08-14T13:19:54;4.38;;;3.92;;
19026;SDS011;9646;52.034;5.554;2022-08-14T13:22:23;7.43;;;3.90;;
19026;SDS011;9646;52.034;5.554;2022-08-14T13:24:52;4.20;;;3.80;;
19026;SDS011;9646;52.034;5.554;2022-08-14T13:27:19;6.07;;;4.45;;
19026;SDS011;9646;52.034;5.554;2022-08-14T13:29:48;4.53;;;3.83;;
19026;SDS011;9646;52.034;5.554;2022-08-14T13:32:16;4.88;;;3.67;;
19026;SDS011;9646;52.034;5.554;2022-08-14T13:34:44;4.85;;;3.70;;
19026;SDS011;9646;52.034;5.554;2022-08-14T13:37:13;4.15;;;3.83;;
19026;SDS011;9646;52.034;5.554;2022-08-14T13:39:41;4.05;;;3.75;;
19026;SDS011;9646;52.034;5.554;2022-08-14T13:42:12;6.30;;;5.70;;
19026;SDS011;9646;52.034;5.554;2022-08-14T13:44:40;5.03;;;4.63;;
19026;SDS011;9646;52.034;5.554;2022-08-14T13:47:08;5.68;;;4.20;;
19026;SDS011;9646;52.034;5.554;2022-08-14T13:49:36;4.68;;;4.25;;
19026;SDS011;9646;52.034;5.554;2022-08-14T13:52:03;4.35;;;3.83;;
19026;SDS011;9646;52.034;5.554;2022-08-14T13:54:32;4.55;;;4.10;;
19026;SDS011;9646;52.034;5.554;2022-08-14T13:57:01;4.72;;;3.95;;
19026;SDS011;9646;52.034;5.554;2022-08-14T13:59:28;5.57;;;4.20;;
19026;SDS011;9646;52.034;5.554;2022-08-14T14:01:57;6.53;;;4.35;;
19026;SDS011;9646;52.034;5.554;2022-08-14T14:04:29;5.25;;;4.05;;
19026;SDS011;9646;52.034;5.554;2022-08-14T14:06:58;5.28;;;4.05;;
19026;SDS011;9646;52.034;5.554;2022-08-14T14:09:27;4.43;;;3.90;;
19026;SDS011;9646;52.034;5.554;2022-08-14T14:11:55;4.28;;;3.88;;
19026;SDS011;9646;52.034;5.554;2022-08-14T14:14:25;4.32;;;3.92;;
19026;SDS011;9646;52.034;5.554;2022-08-14T14:16:52;5.10;;;3.60;;
19026;SDS011;9646;52.034;5.554;2022-08-14T14:19:20;4.47;;;4.00;;
19026;SDS011;9646;52.034;5.554;2022-08-14T14:21:50;4.55;;;3.78;;
19026;SDS011;9646;52.034;5.554;2022-08-14T14:24:19;5.60;;;4.30;;
19026;SDS011;9646;52.034;5.554;2022-08-14T14:26:46;4.63;;;4.22;;
19026;SDS011;9646;52.034;5.554;2022-08-14T14:29:13;6.35;;;4.10;;
19026;SDS011;9646;52.034;5.554;2022-08-14T14:31:42;4.13;;;3.70;;
19026;SDS011;9646;52.034;5.554;2022-08-14T14:34:11;6.57;;;4.40;;
19026;SDS011;9646;52.034;5.554;2022-08-14T14:36:39;5.32;;;4.18;;
19026;SDS011;9646;52.034;5.554;2022-08-14T14:39:09;4.32;;;3.92;;
19026;SDS011;9646;52.034;5.554;2022-08-14T14:41:36;5.75;;;4.20;;
19026;SDS011;9646;52.034;5.554;2022-08-14T14:44:05;5.63;;;4.40;;
19026;SDS011;9646;52.034;5.554;2022-08-14T14:46:33;4.40;;;4.00;;
19026;SDS011;9646;52.034;5.554;2022-08-14T14:49:03;3.50;;;3.20;;
19026;SDS011;9646;52.034;5.554;2022-08-14T14:51:31;4.95;;;3.95;;
19026;SDS011;9646;52.034;5.554;2022-08-14T14:53:58;4.88;;;4.20;;
19026;SDS011;9646;52.034;5.554;2022-08-14T14:56:25;5.55;;;3.92;;
19026;SDS011;9646;52.034;5.554;2022-08-14T14:58:55;4.43;;;4.03;;
19026;SDS011;9646;52.034;5.554;2022-08-14T15:01:22;6.35;;;4.68;;
19026;SDS011;9646;52.034;5.554;2022-08-14T15:03:49;5.40;;;4.32;;
19026;SDS011;9646;52.034;5.554;2022-08-14T15:06:19;5.15;;;4.38;;
19026;SDS011;9646;52.034;5.554;2022-08-14T15:08:46;5.00;;;4.50;;
19026;SDS011;9646;52.034;5.554;2022-08-14T15:11:14;6.22;;;5.57;;
19026;SDS011;9646;52.034;5.554;2022-08-14T15:13:41;4.78;;;4.28;;
19026;SDS011;9646;52.034;5.554;2022-08-14T15:16:08;6.60;;;5.00;;